Time;durP1;ratioP1;P1;durP2;ratioP2;P2;SDS_P1;SDS_P2;PMS_P1;PMS_P2;Temp;Humidity;BMP_temperature;BMP_pressure;BME280_temperature;BME280_humidity;BME280_pressure;Samples;Min_cycle;Max_cycle;Signal;HPM_P1;HPM_P2
2022/12/06 00:01:39;;;;;;;8.27;7.40;;;2.20;99.90;;;;;;5033473;28;20202;-59
2022/12/06 00:04:10;;;;;;;11.18;7.50;;;2.20;99.90;;;;;;5033441;28;20203;-58
2022/12/06 00:06:39;;;;;;;9.25;7.15;;;2.20;99.90;;;;;;5033236;28;20533;-58
2022/12/06 00:09:07;;;;;;;10.95;8.70;;;2.20;99.90;;;;;;5033365;28;20229;-59
2022/12/06 00:11:37;;;;;;;9.30;7.88;;;2.20;99.90;;;;;;5033533;28;20209;-59
2022/12/06 00:14:06;;;;;;;11.40;7.93;;;2.20;99.90;;;;;;5032816;28;20674;-58
2022/12/06 00:16:33;;;;;;;10.18;7.70;;;2.20;99.90;;;;;;5033422;28;20213;-59
2022/12/06 00:19:01;;;;;;;10.38;7.30;;;2.20;99.90;;;;;;5033017;28;20211;-59
2022/12/06 00:21:30;;;;;;;10.30;8.55;;;2.20;99.90;;;;;;5033270;28;20204;-59
2022/12/06 00:23:58;;;;;;;9.25;7.90;;;2.20;99.90;;;;;;5032998;28;20678;-59
2022/12/06 00:26:25;;;;;;;8.30;7.35;;;2.20;99.90;;;;;;5035542;28;20309;-60
2022/12/06 00:28:55;;;;;;;8.82;7.60;;;2.20;99.90;;;;;;5037082;28;20694;-59
2022/12/06 00:31:24;;;;;;;9.60;7.65;;;2.20;99.90;;;;;;5038011;28;20206;-59
2022/12/06 00:33:51;;;;;;;9.23;7.88;;;2.20;99.90;;;;;;5037641;28;20575;-58
2022/12/06 00:36:20;;;;;;;10.00;7.47;;;2.20;99.90;;;;;;5036728;28;20237;-59
2022/12/06 00:38:48;;;;;;;10.10;7.35;;;2.20;99.90;;;;;;5037108;28;20209;-59
2022/12/06 00:41:17;;;;;;;9.18;7.70;;;2.20;99.90;;;;;;5037218;28;20198;-59
2022/12/06 00:43:44;;;;;;;11.70;7.68;;;2.20;99.90;;;;;;5037495;28;20701;-59
2022/12/06 00:46:14;;;;;;;10.40;8.55;;;2.20;99.90;;;;;;5037235;28;20250;-59
2022/12/06 00:48:41;;;;;;;9.95;7.80;;;2.20;99.90;;;;;;5037227;28;20198;-59
2022/12/06 00:51:08;;;;;;;10.57;7.97;;;2.20;99.90;;;;;;5036819;28;20198;-59
2022/12/06 00:53:35;;;;;;;8.88;7.65;;;2.10;99.90;;;;;;5037154;28;20568;-59
2022/12/06 00:56:02;;;;;;;8.65;7.35;;;2.20;99.90;;;;;;5036790;28;20233;-59
2022/12/06 00:58:28;;;;;;;10.73;7.47;;;2.10;99.90;;;;;;5036707;28;20674;-59
2022/12/06 01:00:55;;;;;;;12.82;7.25;;;2.10;99.90;;;;;;5036448;28;20675;-58
2022/12/06 01:03:23;;;;;;;11.05;7.22;;;2.10;99.90;;;;;;5036756;28;20198;-59
2022/12/06 01:05:51;;;;;;;11.95;8.20;;;2.10;99.90;;;;;;5036353;28;20224;-59
2022/12/06 01:08:18;;;;;;;8.13;6.45;;;2.10;99.90;;;;;;5036367;28;20253;-59
2022/12/06 01:10:52;;;;;;;7.55;6.32;;;2.10;99.90;;;;;;5036584;28;20207;-58
2022/12/06 01:13:19;;;;;;;8.75;7.60;;;2.10;99.90;;;;;;5036433;28;20186;-58
2022/12/06 01:15:45;;;;;;;7.80;6.50;;;2.10;99.90;;;;;;5035985;28;20710;-58
2022/12/06 01:18:12;;;;;;;7.65;6.85;;;2.10;99.90;;;;;;5036056;28;20199;-59
2022/12/06 01:20:40;;;;;;;8.70;6.38;;;2.10;99.90;;;;;;5036946;28;20281;-58
2022/12/06 01:23:07;;;;;;;8.52;6.50;;;2.10;99.90;;;;;;5036310;28;20204;-58
2022/12/06 01:25:34;;;;;;;6.45;5.80;;;2.10;99.90;;;;;;5036186;28;20225;-58
2022/12/06 01:28:01;;;;;;;9.55;7.20;;;2.10;99.90;;;;;;5035986;28;20211;-58
2022/12/06 01:30:28;;;;;;;8.13;7.30;;;2.10;99.90;;;;;;5035996;28;20203;-58
2022/12/06 01:32:55;;;;;;;8.00;6.50;;;2.10;99.90;;;;;;5036487;28;20203;-58
2022/12/06 01:35:21;;;;;;;7.35;6.65;;;2.00;99.90;;;;;;5035759;28;20250;-59
2022/12/06 01:37:50;;;;;;;9.57;6.80;;;2.00;99.90;;;;;;5035334;28;20209;-58
2022/12/06 01:40:17;;;;;;;8.10;7.30;;;2.00;99.90;;;;;;5035825;28;20267;-59
2022/12/06 01:42:43;;;;;;;9.05;7.72;;;2.00;99.90;;;;;;5035934;28;20202;-59
2022/12/06 01:45:11;;;;;;;7.88;6.50;;;2.00;99.90;;;;;;5035727;28;20215;-59
2022/12/06 01:47:41;;;;;;;7.40;6.65;;;2.00;99.90;;;;;;5035484;28;20206;-59
2022/12/06 01:50:14;;;;;;;8.65;6.78;;;2.00;99.90;;;;;;5035886;28;20206;-58
2022/12/06 01:52:49;;;;;;;8.10;7.30;;;2.00;99.90;;;;;;5035826;28;20510;-59
2022/12/06 01:55:20;;;;;;;8.60;7.22;;;2.00;99.90;;;;;;5035671;28;20229;-59
2022/12/06 01:57:47;;;;;;;7.65;6.30;;;2.00;99.90;;;;;;5035590;28;20216;-59
2022/12/06 02:00:15;;;;;;;8.13;6.53;;;2.00;99.90;;;;;;5035596;28;20230;-59
2022/12/06 02:02:42;;;;;;;6.95;6.32;;;2.00;99.90;;;;;;5035450;28;20202;-58
2022/12/06 02:05:09;;;;;;;8.20;7.40;;;2.00;99.90;;;;;;5035294;28;20215;-58
2022/12/06 02:07:37;;;;;;;8.35;7.55;;;1.90;99.90;;;;;;5035385;28;20232;-59
2022/12/06 02:10:05;;;;;;;7.50;6.07;;;1.90;99.90;;;;;;5035432;28;20293;-58
2022/12/06 02:12:33;;;;;;;8.25;6.75;;;1.90;99.90;;;;;;5035256;28;20202;-58
2022/12/06 02:15:00;;;;;;;7.40;6.60;;;1.80;99.90;;;;;;5035059;28;20226;-58
2022/12/06 02:17:37;;;;;;;7.43;6.15;;;1.80;99.90;;;;;;5034905;28;20713;-58
2022/12/06 02:20:16;;;;;;;6.93;5.82;;;1.80;99.90;;;;;;5034881;28;20660;-59
2022/12/06 02:23:18;;;;;;;8.15;6.85;;;1.70;99.90;;;;;;5034862;28;20717;-59
2022/12/06 02:26:04;;;;;;;7.70;6.65;;;1.70;99.90;;;;;;5020266;28;20244;-59
2022/12/06 02:29:19;;;;;;;9.32;6.45;;;1.60;99.90;;;;;;5034925;28;20658;-58
2022/12/06 02:31:53;;;;;;;9.35;7.45;;;1.60;99.90;;;;;;5034860;28;20225;-58
2022/12/06 02:34:25;;;;;;;9.95;7.50;;;1.60;99.90;;;;;;5034716;28;20191;-58
2022/12/06 02:37:00;;;;;;;12.13;8.23;;;1.50;99.90;;;;;;5034443;28;20670;-58
2022/12/06 02:39:33;;;;;;;7.90;7.10;;;1.50;99.90;;;;;;5034557;28;20563;-58
2022/12/06 02:42:05;;;;;;;7.00;6.30;;;1.50;99.90;;;;;;5034464;28;20201;-58
2022/12/06 02:44:35;;;;;;;9.70;7.10;;;1.50;99.90;;;;;;5034661;28;20597;-59
2022/12/06 02:47:06;;;;;;;8.50;6.55;;;1.50;99.90;;;;;;5034596;28;20198;-59
2022/12/06 02:49:34;;;;;;;7.85;6.07;;;1.50;99.90;;;;;;5033605;28;20205;-59
2022/12/06 02:52:02;;;;;;;7.40;6.20;;;1.50;99.90;;;;;;5034476;28;20544;-59
2022/12/06 02:54:31;;;;;;;7.80;6.28;;;1.40;99.90;;;;;;5034390;28;20252;-59
2022/12/06 02:56:57;;;;;;;8.55;6.80;;;1.40;99.90;;;;;;5034116;28;20226;-59
2022/12/06 02:59:24;;;;;;;6.55;5.90;;;1.50;99.90;;;;;;5034135;28;20209;-59
2022/12/06 03:01:56;;;;;;;6.57;5.97;;;1.50;99.90;;;;;;5034335;28;20211;-59
2022/12/06 03:04:48;;;;;;;6.40;5.72;;;1.50;99.90;;;;;;5034471;28;20229;-58
2022/12/06 03:07:34;;;;;;;5.95;5.28;;;1.50;99.90;;;;;;5034102;28;20634;-59
2022/12/06 03:10:17;;;;;;;6.25;5.65;;;1.50;99.90;;;;;;5034075;28;20192;-59
2022/12/06 03:12:52;;;;;;;7.63;5.85;;;1.50;99.90;;;;;;5034380;28;20201;-59
2022/12/06 03:15:27;;;;;;;6.25;5.35;;;1.40;99.90;;;;;;5034489;28;20260;-58
2022/12/06 03:17:59;;;;;;;7.47;6.55;;;1.40;99.90;;;;;;5035252;28;20186;-58
2022/12/06 03:20:32;;;;;;;6.78;6.07;;;1.40;99.90;;;;;;5034796;28;20197;-58
2022/12/06 03:23:04;;;;;;;7.07;5.88;;;1.40;99.90;;;;;;5034906;28;20190;-59
2022/12/06 03:25:34;;;;;;;6.78;6.07;;;1.40;99.90;;;;;;5034016;28;20710;-58
2022/12/06 03:28:02;;;;;;;8.30;6.38;;;1.40;99.90;;;;;;5034016;28;20202;-60
2022/12/06 03:30:31;;;;;;;6.60;5.30;;;1.40;99.90;;;;;;5033835;28;20202;-59
2022/12/06 03:32:59;;;;;;;8.20;5.88;;;1.40;99.90;;;;;;5033458;28;20240;-58
2022/12/06 03:35:32;;;;;;;6.60;5.97;;;1.40;99.90;;;;;;5033700;28;20241;-58
2022/12/06 03:38:05;;;;;;;6.50;5.88;;;1.40;99.90;;;;;;5033834;28;20560;-59
2022/12/06 03:40:35;;;;;;;7.35;6.60;;;1.40;99.90;;;;;;5033634;28;20183;-59
2022/12/06 03:43:03;;;;;;;7.22;5.90;;;1.40;99.90;;;;;;5033469;28;20208;-58
2022/12/06 03:45:36;;;;;;;8.80;6.38;;;1.40;99.90;;;;;;5033707;28;20218;-58
2022/12/06 03:48:08;;;;;;;7.13;6.43;;;1.40;99.90;;;;;;5034205;28;20217;-57
2022/12/06 03:50:39;;;;;;;6.55;5.95;;;1.40;99.90;;;;;;5033752;28;20553;-59
2022/12/06 03:53:06;;;;;;;6.93;6.22;;;1.40;99.90;;;;;;5033571;28;20187;-58
2022/12/06 03:55:33;;;;;;;9.73;7.53;;;1.40;99.90;;;;;;5032906;28;20596;-59
2022/12/06 03:58:00;;;;;;;9.65;8.13;;;1.40;99.90;;;;;;5033458;28;20211;-58
2022/12/06 04:00:27;;;;;;;8.68;7.60;;;1.40;99.90;;;;;;5032791;28;20208;-59
2022/12/06 04:02:53;;;;;;;13.85;8.73;;;1.50;99.90;;;;;;5033286;28;20198;-59
2022/12/06 04:05:20;;;;;;;9.45;8.05;;;1.50;99.90;;;;;;5033223;28;20226;-59
2022/12/06 04:10:43;;;;;;;13.23;8.93;;;1.50;99.90;;;;;;5131424;27;20955;-60
2022/12/06 04:13:09;;;;;;;12.30;9.13;;;1.50;99.90;;;;;;5131302;28;20206;-59
2022/12/06 04:15:38;;;;;;;11.40;9.20;;;1.60;99.90;;;;;;5131522;27;20301;-59
2022/12/06 04:18:12;;;;;;;14.10;9.25;;;1.60;99.90;;;;;;5131117;28;20685;-60
2022/12/06 04:23:34;;;;;;;12.90;8.40;;;1.60;99.90;;;;;;5090976;28;20239;-61
2022/12/06 04:26:03;;;;;;;15.93;9.75;;;1.60;99.90;;;;;;5090971;28;20570;-61
2022/12/06 04:39:27;;;;;;;13.00;9.02;;;1.70;99.90;;;;;;5091013;28;20216;-61
2022/12/06 04:44:40;;;;;;;12.70;10.15;;;1.70;99.90;;;;;;5091610;28;20654;-61
2022/12/06 04:47:07;;;;;;;10.65;8.25;;;1.70;99.90;;;;;;5092893;28;20206;-62
2022/12/06 04:49:35;;;;;;;13.15;10.40;;;1.70;99.90;;;;;;5094276;28;20221;-61
2022/12/06 04:52:02;;;;;;;10.98;9.77;;;1.70;99.90;;;;;;5093934;28;20220;-61
2022/12/06 04:54:30;;;;;;;10.88;8.70;;;1.70;99.90;;;;;;5095516;28;20201;-62
2022/12/06 04:56:58;;;;;;;10.85;8.93;;;1.80;99.90;;;;;;5094473;28;20200;-61
2022/12/06 04:59:26;;;;;;;9.07;7.90;;;1.80;99.90;;;;;;5093636;28;20201;-61
2022/12/06 05:01:53;;;;;;;11.35;9.82;;;1.80;99.90;;;;;;5091670;28;20221;-62
2022/12/06 05:04:19;;;;;;;12.15;9.13;;;1.80;99.90;;;;;;5090499;28;20668;-61
2022/12/06 05:06:46;;;;;;;12.10;9.98;;;1.80;99.90;;;;;;5090170;28;20214;-61
2022/12/06 05:09:13;;;;;;;10.88;8.77;;;1.80;99.90;;;;;;5090048;28;20281;-61
2022/12/06 05:11:40;;;;;;;12.63;9.38;;;1.80;99.90;;;;;;5090109;28;20231;-61
2022/12/06 05:14:08;;;;;;;10.85;9.60;;;1.80;99.90;;;;;;5090009;28;20581;-61
2022/12/06 05:16:35;;;;;;;14.18;9.80;;;1.80;99.90;;;;;;5090158;28;20198;-61
2022/12/06 05:19:02;;;;;;;14.95;10.38;;;1.80;99.90;;;;;;5090016;28;20328;-61
2022/12/06 05:21:29;;;;;;;11.77;9.02;;;1.80;99.90;;;;;;5079254;28;20234;-61
2022/12/06 05:23:56;;;;;;;11.82;9.13;;;1.80;99.90;;;;;;5075899;28;20202;-61
2022/12/06 05:26:24;;;;;;;11.57;8.95;;;1.90;99.90;;;;;;5075618;28;20215;-62
2022/12/06 05:28:52;;;;;;;16.63;10.07;;;1.90;99.90;;;;;;5075666;28;20222;-62
2022/12/06 05:31:21;;;;;;;14.43;9.38;;;1.90;99.90;;;;;;5075346;28;20255;-61
2022/12/06 05:33:49;;;;;;;11.70;9.88;;;1.90;99.90;;;;;;5075828;28;20215;-61
2022/12/06 05:36:18;;;;;;;13.45;10.00;;;1.90;99.90;;;;;;5075358;28;20686;-62
2022/12/06 05:38:45;;;;;;;16.30;10.20;;;1.90;99.90;;;;;;5075786;28;20232;-61
2022/12/06 05:41:12;;;;;;;13.65;8.15;;;1.90;99.90;;;;;;5078036;28;20224;-61
2022/12/06 05:43:39;;;;;;;16.35;10.60;;;1.90;99.90;;;;;;5076983;28;20219;-61
2022/12/06 05:46:06;;;;;;;13.75;9.32;;;1.90;99.90;;;;;;5075921;28;20210;-61
2022/12/06 05:48:34;;;;;;;12.40;9.18;;;1.90;99.90;;;;;;5075370;28;20205;-61
2022/12/06 05:51:01;;;;;;;12.80;10.32;;;2.00;99.90;;;;;;5075214;28;20220;-62
2022/12/06 05:53:28;;;;;;;12.93;9.35;;;2.00;99.90;;;;;;5076558;28;20206;-62
2022/12/06 05:55:55;;;;;;;14.40;9.20;;;2.00;99.90;;;;;;5076365;28;20197;-62
2022/12/06 05:58:22;;;;;;;18.50;10.00;;;2.00;99.90;;;;;;5067372;28;20199;-61
2022/12/06 06:00:50;;;;;;;13.52;9.45;;;2.00;99.90;;;;;;5059797;28;20196;-62
2022/12/06 06:03:17;;;;;;;19.88;10.70;;;2.00;99.90;;;;;;5059100;28;20197;-61
2022/12/06 06:05:50;;;;;;;13.82;8.23;;;2.00;99.90;;;;;;5075157;28;20213;-61
2022/12/06 06:08:17;;;;;;;15.85;9.10;;;2.10;99.90;;;;;;5075246;28;20207;-62
2022/12/06 06:10:44;;;;;;;16.25;9.63;;;2.10;99.90;;;;;;5075377;28;20709;-60
2022/12/06 06:13:11;;;;;;;18.88;9.95;;;2.10;99.90;;;;;;5075204;28;20205;-61
2022/12/06 06:15:38;;;;;;;18.02;9.80;;;2.10;99.90;;;;;;5075019;28;20201;-62
2022/12/06 06:18:05;;;;;;;16.25;10.20;;;2.00;99.90;;;;;;5076513;28;20213;-61
2022/12/06 06:20:32;;;;;;;15.75;10.38;;;2.10;99.90;;;;;;5075901;28;20585;-61
2022/12/06 06:23:00;;;;;;;16.45;8.90;;;2.10;99.90;;;;;;5076513;28;20230;-62
2022/12/06 06:25:27;;;;;;;17.50;8.95;;;2.10;99.90;;;;;;5076405;28;20230;-61
2022/12/06 06:27:54;;;;;;;14.85;10.60;;;2.10;99.90;;;;;;5076439;28;20210;-60
2022/12/06 06:30:21;;;;;;;19.10;10.82;;;2.10;99.90;;;;;;5076135;28;20269;-61
2022/12/06 06:32:48;;;;;;;29.02;10.27;;;2.10;99.90;;;;;;5075249;28;20251;-62
2022/12/06 06:35:15;;;;;;;26.70;11.38;;;2.10;99.90;;;;;;5076739;28;20206;-62
2022/12/06 06:37:41;;;;;;;16.25;10.43;;;2.20;99.90;;;;;;5076624;28;20206;-61
2022/12/06 06:40:10;;;;;;;19.38;9.93;;;2.20;99.90;;;;;;5077298;28;20213;-61
2022/12/06 06:42:38;;;;;;;17.63;10.35;;;2.20;99.90;;;;;;5075494;28;20227;-61
2022/12/06 06:45:05;;;;;;;26.77;10.35;;;2.20;99.90;;;;;;5075261;28;20205;-62
2022/12/06 06:47:32;;;;;;;35.85;10.85;;;2.20;99.90;;;;;;5075268;28;20201;-62
2022/12/06 06:49:59;;;;;;;29.58;11.60;;;2.30;99.90;;;;;;5075756;28;20285;-62
2022/12/06 06:52:26;;;;;;;18.70;11.13;;;2.30;99.90;;;;;;5067948;28;20218;-61
2022/12/06 06:54:52;;;;;;;21.88;9.88;;;2.30;99.90;;;;;;5055335;28;20203;-61
2022/12/06 06:57:21;;;;;;;21.38;9.90;;;2.30;99.90;;;;;;5055318;28;20272;-61
2022/12/06 06:59:47;;;;;;;22.60;10.05;;;2.30;99.90;;;;;;5056608;28;20252;-62
2022/12/06 07:02:16;;;;;;;22.52;11.38;;;2.30;99.90;;;;;;5056639;28;20223;-61
2022/12/06 07:04:43;;;;;;;21.17;11.18;;;2.30;99.90;;;;;;5056745;28;20238;-62
2022/12/06 07:07:10;;;;;;;24.15;9.93;;;2.30;99.90;;;;;;5075760;28;20641;-62
2022/12/06 07:09:38;;;;;;;21.13;10.77;;;2.30;99.90;;;;;;5075970;28;20308;-62
2022/12/06 07:12:05;;;;;;;28.67;10.65;;;2.30;99.90;;;;;;5076931;28;20219;-63
2022/12/06 07:14:34;;;;;;;22.50;12.13;;;2.30;99.90;;;;;;5076439;28;20555;-62
2022/12/06 07:17:00;;;;;;;20.40;11.40;;;2.30;99.90;;;;;;5077443;28;20694;-61
2022/12/06 07:19:27;;;;;;;22.58;11.15;;;2.40;99.90;;;;;;5077903;28;20208;-61
2022/12/06 07:21:54;;;;;;;35.95;12.75;;;2.40;99.90;;;;;;5076809;28;20602;-62
2022/12/06 07:24:21;;;;;;;19.70;10.65;;;2.40;99.90;;;;;;5077333;28;20206;-62
2022/12/06 07:26:47;;;;;;;20.80;11.88;;;2.40;99.90;;;;;;5078001;28;20217;-62
2022/12/06 07:29:14;;;;;;;26.00;11.75;;;2.40;99.90;;;;;;5076435;28;20208;-62
2022/12/06 07:31:42;;;;;;;28.38;11.30;;;2.40;99.90;;;;;;5071738;28;20232;-61
2022/12/06 07:34:10;;;;;;;31.13;10.75;;;2.50;99.90;;;;;;5078953;28;20294;-62
2022/12/06 07:36:36;;;;;;;19.50;11.10;;;2.50;99.90;;;;;;5077416;28;20207;-61
2022/12/06 07:39:03;;;;;;;19.00;11.82;;;2.50;99.90;;;;;;5078113;28;20209;-62
2022/12/06 07:47:02;;;;;;;22.30;10.20;;;2.50;99.90;;;;;;5073337;28;20278;-61
2022/12/06 07:49:29;;;;;;;20.48;10.95;;;2.50;99.90;;;;;;5074091;28;20225;-60
2022/12/06 07:51:56;;;;;;;20.98;10.57;;;2.50;99.90;;;;;;5071990;28;20227;-61
2022/12/06 07:54:24;;;;;;;23.63;11.85;;;2.60;99.90;;;;;;5073282;28;20216;-62
2022/12/06 07:56:51;;;;;;;25.92;12.02;;;2.60;99.90;;;;;;5073841;28;20209;-62
2022/12/06 07:59:18;;;;;;;22.45;12.02;;;2.60;99.90;;;;;;5073803;28;20202;-61
2022/12/06 08:01:45;;;;;;;19.15;11.35;;;2.60;99.90;;;;;;5072221;28;20225;-62
2022/12/06 08:04:13;;;;;;;21.02;11.50;;;2.60;99.90;;;;;;5072955;28;20572;-62
2022/12/06 08:06:40;;;;;;;25.02;12.50;;;2.70;99.90;;;;;;5071018;28;20278;-61
2022/12/06 08:09:07;;;;;;;22.58;11.50;;;2.70;99.90;;;;;;5071966;28;20204;-62
2022/12/06 08:11:35;;;;;;;19.75;10.40;;;2.70;99.90;;;;;;5073159;28;20319;-62
2022/12/06 08:14:02;;;;;;;20.15;12.02;;;2.70;99.90;;;;;;5073357;28;20203;-61
2022/12/06 08:16:29;;;;;;;26.17;10.57;;;2.80;99.90;;;;;;5073429;28;20200;-62
2022/12/06 08:18:56;;;;;;;32.75;12.02;;;2.80;99.90;;;;;;5073692;28;20207;-62
2022/12/06 08:21:25;;;;;;;22.17;10.85;;;2.80;99.90;;;;;;5072913;28;20601;-61
2022/12/06 08:23:52;;;;;;;20.58;11.50;;;2.90;99.90;;;;;;5073195;28;20636;-62
2022/12/06 08:26:20;;;;;;;21.45;11.23;;;2.90;99.90;;;;;;5072913;28;20667;-62
2022/12/06 08:28:47;;;;;;;21.42;10.95;;;2.90;99.90;;;;;;5072743;28;20676;-62
2022/12/06 08:31:16;;;;;;;22.88;12.93;;;2.90;99.90;;;;;;5072996;28;20238;-60
2022/12/06 08:33:43;;;;;;;28.13;12.40;;;3.00;99.90;;;;;;5072979;28;20208;-62
2022/12/06 08:36:12;;;;;;;28.30;12.60;;;3.00;99.90;;;;;;5072860;28;20202;-62
2022/12/06 08:38:41;;;;;;;33.97;13.07;;;3.00;99.90;;;;;;5072789;28;20286;-62
2022/12/06 08:41:54;;;;;;;24.02;13.52;;;3.10;99.90;;;;;;5072316;28;20663;-60
2022/12/06 08:43:56;;;;;;;29.98;12.55;;;3.10;99.90;;;;;;5072508;28;20236;-60
2022/12/06 08:46:23;;;;;;;38.15;14.30;;;3.10;99.90;;;;;;5072729;28;20696;-62
2022/12/06 08:48:51;;;;;;;27.98;14.40;;;3.10;99.90;;;;;;5072823;28;20213;-60
2022/12/06 08:51:17;;;;;;;48.25;15.35;;;3.10;99.90;;;;;;5072683;28;20228;-61
2022/12/06 08:53:46;;;;;;;37.38;15.82;;;3.20;99.90;;;;;;5072758;28;20204;-62
2022/12/06 08:56:12;;;;;;;35.65;16.42;;;3.20;99.90;;;;;;5074656;28;20219;-61
2022/12/06 08:58:39;;;;;;;36.90;14.73;;;3.20;99.90;;;;;;5077374;28;20210;-61
2022/12/06 09:01:11;;;;;;;44.30;16.80;;;3.20;99.90;;;;;;5077139;28;20231;-61
2022/12/06 09:03:38;;;;;;;39.10;15.52;;;3.20;99.90;;;;;;5076691;28;20192;-61
2022/12/06 09:06:05;;;;;;;31.30;14.05;;;3.30;99.90;;;;;;5076699;28;20209;-61
2022/12/06 09:08:32;;;;;;;27.13;13.52;;;3.30;99.90;;;;;;5076745;28;20207;-61
2022/12/06 09:11:00;;;;;;;34.33;15.50;;;3.30;99.90;;;;;;5076779;28;20228;-61
2022/12/06 09:13:27;;;;;;;33.95;16.55;;;3.30;99.90;;;;;;5076756;28;20210;-61
2022/12/06 09:15:54;;;;;;;37.60;16.08;;;3.30;99.90;;;;;;5076505;28;20210;-62
2022/12/06 09:18:20;;;;;;;34.97;15.45;;;3.40;99.90;;;;;;5078282;28;20200;-62
2022/12/06 09:20:47;;;;;;;32.50;16.15;;;3.40;99.90;;;;;;5077229;28;20214;-62
2022/12/06 09:23:14;;;;;;;37.05;15.27;;;3.40;99.90;;;;;;5078370;28;20196;-62
2022/12/06 09:25:41;;;;;;;38.50;14.80;;;3.40;99.90;;;;;;5077488;28;20208;-62
2022/12/06 09:28:11;;;;;;;36.20;15.43;;;3.40;99.90;;;;;;5076490;28;20202;-63
2022/12/06 09:30:37;;;;;;;32.20;15.55;;;3.40;99.90;;;;;;5075392;28;20221;-60
2022/12/06 09:33:05;;;;;;;46.20;17.10;;;3.40;99.90;;;;;;5076182;28;20200;-62
2022/12/06 09:35:32;;;;;;;39.55;16.83;;;3.50;99.90;;;;;;5075828;28;20203;-62
2022/12/06 09:38:02;;;;;;;37.75;16.42;;;3.50;99.90;;;;;;5076036;28;20200;-63
2022/12/06 09:40:33;;;;;;;32.70;16.52;;;3.50;99.90;;;;;;5076208;28;20200;-63
2022/12/06 09:43:17;;;;;;;40.53;16.30;;;3.60;99.90;;;;;;5075991;28;20198;-62
2022/12/06 09:45:59;;;;;;;33.55;15.70;;;3.60;99.90;;;;;;5075863;28;20188;-61
2022/12/06 09:48:40;;;;;;;31.38;16.48;;;3.60;99.90;;;;;;5075551;28;20234;-62
2022/12/06 09:51:20;;;;;;;34.35;15.05;;;3.70;99.90;;;;;;5075012;28;20254;-62
2022/12/06 09:54:06;;;;;;;33.95;15.95;;;3.70;99.90;;;;;;5075567;28;20245;-62
2022/12/06 09:56:37;;;;;;;28.95;13.55;;;3.70;99.90;;;;;;5075182;28;20581;-61
2022/12/06 09:59:16;;;;;;;35.15;14.40;;;3.70;99.90;;;;;;5075431;28;20185;-61
2022/12/06 10:01:55;;;;;;;28.85;15.38;;;3.80;99.90;;;;;;5075601;28;20224;-62
2022/12/06 10:04:45;;;;;;;26.70;14.07;;;3.80;99.90;;;;;;5075394;28;20188;-62
2022/12/06 10:07:19;;;;;;;27.33;12.30;;;3.80;99.90;;;;;;5067148;28;20205;-62
2022/12/06 10:09:57;;;;;;;22.83;12.45;;;3.80;99.90;;;;;;5074872;28;20212;-62
2022/12/06 10:12:38;;;;;;;24.45;11.30;;;3.80;99.90;;;;;;5074919;28;20224;-62
2022/12/06 10:15:20;;;;;;;28.02;12.45;;;3.80;99.90;;;;;;5075457;28;20195;-61
2022/12/06 10:18:00;;;;;;;22.55;12.10;;;3.80;99.90;;;;;;5075313;28;20195;-62
2022/12/06 10:20:34;;;;;;;30.25;13.18;;;3.80;99.90;;;;;;5074820;28;20192;-61
2022/12/06 10:23:14;;;;;;;23.73;13.57;;;3.80;99.90;;;;;;5075077;28;20191;-62
2022/12/06 10:28:13;;;;;;;27.80;13.18;;;3.90;99.90;;;;;;5034142;28;20264;-59
2022/12/06 10:30:50;;;;;;;24.83;11.50;;;3.90;99.90;;;;;;5035510;28;20207;-60
2022/12/06 10:33:26;;;;;;;24.08;13.27;;;3.90;99.90;;;;;;5035385;28;20196;-60
2022/12/06 10:35:58;;;;;;;19.83;11.50;;;4.00;99.90;;;;;;5034917;28;20205;-59
2022/12/06 10:38:30;;;;;;;22.77;11.15;;;4.00;99.90;;;;;;5035120;28;20663;-60
2022/12/06 10:41:08;;;;;;;20.27;9.70;;;4.00;99.90;;;;;;5035034;28;20206;-59
2022/12/06 10:43:42;;;;;;;19.48;9.82;;;4.00;99.90;;;;;;5034823;28;20308;-59
2022/12/06 10:49:08;;;;;;;15.50;8.60;;;4.00;99.90;;;;;;5035375;28;20190;-58
2022/12/06 10:51:41;;;;;;;17.58;9.48;;;4.00;99.90;;;;;;5035206;28;20300;-58
2022/12/06 10:54:21;;;;;;;18.75;9.20;;;4.00;99.90;;;;;;5034908;28;20190;-59
2022/12/06 10:56:51;;;;;;;13.38;8.43;;;4.00;99.90;;;;;;5035578;28;20222;-58
2022/12/06 10:59:30;;;;;;;14.63;8.10;;;4.00;99.90;;;;;;5035023;28;20288;-61
2022/12/06 11:02:01;;;;;;;14.65;8.00;;;4.10;99.90;;;;;;5035107;28;20189;-60
2022/12/06 11:04:33;;;;;;;13.25;8.43;;;4.00;99.90;;;;;;5034380;28;20190;-61
2022/12/06 11:07:05;;;;;;;18.13;10.20;;;4.00;99.90;;;;;;5034554;28;20236;-61
2022/12/06 11:09:38;;;;;;;14.73;8.60;;;4.00;99.90;;;;;;5033810;28;20220;-60
2022/12/06 11:12:18;;;;;;;17.30;9.80;;;4.00;99.90;;;;;;5033692;28;20214;-62
2022/12/06 11:14:49;;;;;;;14.93;8.35;;;3.90;99.90;;;;;;5034663;28;20186;-61
2022/12/06 11:17:22;;;;;;;17.40;9.88;;;3.90;99.90;;;;;;5036153;28;20736;-60
2022/12/06 11:19:51;;;;;;;14.98;7.97;;;4.00;99.90;;;;;;5035079;28;20708;-60
2022/12/06 11:22:27;;;;;;;12.68;7.72;;;4.00;99.90;;;;;;5034870;28;20205;-61
2022/12/06 11:25:00;;;;;;;13.00;7.30;;;4.00;99.90;;;;;;5034078;28;20196;-62
2022/12/06 11:27:32;;;;;;;13.90;6.63;;;4.00;99.90;;;;;;5047720;28;20232;-61
2022/12/06 11:29:59;;;;;;;12.25;7.00;;;4.00;99.90;;;;;;5053968;28;20631;-61
2022/12/06 11:32:28;;;;;;;11.57;6.28;;;3.90;99.90;;;;;;5053224;28;20280;-60
2022/12/06 11:34:58;;;;;;;9.65;6.43;;;4.00;99.90;;;;;;5053390;28;20209;-62
2022/12/06 11:37:30;;;;;;;11.25;5.82;;;4.00;99.90;;;;;;5053358;28;20231;-60
2022/12/06 11:40:14;;;;;;;8.80;6.07;;;4.00;99.90;;;;;;5053434;28;20186;-61
2022/12/06 11:42:41;;;;;;;10.52;6.28;;;3.90;99.90;;;;;;5052827;28;20186;-60
2022/12/06 11:45:15;;;;;;;11.07;6.45;;;3.90;99.90;;;;;;5053378;28;20205;-61
2022/12/06 11:47:43;;;;;;;17.40;6.72;;;3.90;99.90;;;;;;5053493;28;20217;-60
2022/12/06 11:50:16;;;;;;;10.45;6.47;;;3.90;99.90;;;;;;5053482;28;20201;-61
2022/12/06 11:52:48;;;;;;;11.77;6.75;;;3.90;99.90;;;;;;5054609;28;20250;-60
2022/12/06 11:55:18;;;;;;;11.07;7.10;;;3.90;99.90;;;;;;5054307;28;20193;-60
2022/12/06 11:57:51;;;;;;;13.40;7.88;;;4.00;99.90;;;;;;5054139;28;20248;-60
2022/12/06 12:00:21;;;;;;;11.25;6.38;;;4.00;99.90;;;;;;5053898;28;20261;-60
2022/12/06 12:02:51;;;;;;;12.00;7.10;;;4.00;99.90;;;;;;5054418;28;20344;-60
2022/12/06 12:05:21;;;;;;;12.45;7.45;;;4.00;99.90;;;;;;5054207;28;20207;-62
2022/12/06 12:07:51;;;;;;;9.80;6.63;;;4.00;99.90;;;;;;5053852;28;20225;-61
2022/12/06 12:10:40;;;;;;;12.52;7.13;;;4.00;99.90;;;;;;5053743;28;20681;-60
2022/12/06 12:16:12;;;;;;;13.63;7.28;;;4.00;99.90;;;;;;5054413;28;20296;-62
2022/12/06 12:18:49;;;;;;;13.43;7.80;;;4.00;99.90;;;;;;5054084;28;20667;-60
2022/12/06 12:21:16;;;;;;;10.82;7.28;;;3.90;99.90;;;;;;5054508;28;20230;-61
2022/12/06 12:23:44;;;;;;;13.60;7.60;;;4.00;99.90;;;;;;5054020;28;20205;-59
2022/12/06 12:26:13;;;;;;;9.55;7.28;;;4.00;99.90;;;;;;5054040;28;20240;-61
2022/12/06 12:28:42;;;;;;;13.35;7.70;;;4.00;99.90;;;;;;5054023;28;20196;-60
2022/12/06 12:31:15;;;;;;;13.02;8.30;;;4.00;99.90;;;;;;5054932;28;20649;-60
2022/12/06 12:33:43;;;;;;;13.48;8.70;;;4.00;99.90;;;;;;5057688;28;20664;-59
2022/12/06 12:36:17;;;;;;;13.35;8.13;;;4.00;99.90;;;;;;5057872;28;20231;-62
2022/12/06 12:38:50;;;;;;;12.15;8.57;;;4.00;99.90;;;;;;5057657;28;20671;-63
2022/12/06 12:41:30;;;;;;;15.10;9.18;;;4.10;99.90;;;;;;5057604;28;20193;-62
2022/12/06 12:44:00;;;;;;;15.73;8.20;;;4.10;99.90;;;;;;5056963;28;20197;-64
2022/12/06 12:46:28;;;;;;;14.93;7.95;;;4.10;99.90;;;;;;5057230;28;20274;-63
2022/12/06 12:49:21;;;;;;;15.35;9.50;;;4.10;99.90;;;;;;5057578;28;20241;-62
2022/12/06 12:51:48;;;;;;;13.70;9.07;;;4.10;99.90;;;;;;5056740;28;20676;-62
2022/12/06 12:54:25;;;;;;;15.00;9.75;;;4.10;99.90;;;;;;5056732;28;20292;-62
2022/12/06 12:56:53;;;;;;;17.00;10.35;;;4.20;99.90;;;;;;5057476;28;20228;-61
2022/12/06 12:59:22;;;;;;;12.10;8.75;;;4.20;99.90;;;;;;5056686;28;20216;-62
2022/12/06 13:01:54;;;;;;;14.52;9.93;;;4.10;99.90;;;;;;5056019;28;20201;-62
2022/12/06 13:04:32;;;;;;;15.95;9.48;;;4.10;99.90;;;;;;5056034;28;20638;-63
2022/12/06 13:07:02;;;;;;;13.00;8.57;;;4.10;99.90;;;;;;5056410;28;20224;-63
2022/12/06 13:09:32;;;;;;;12.68;8.13;;;4.10;99.90;;;;;;5056039;28;20529;-61
2022/12/06 13:12:04;;;;;;;15.48;9.68;;;4.10;99.90;;;;;;5056035;28;20279;-63
2022/12/06 13:14:32;;;;;;;14.57;9.35;;;4.10;99.90;;;;;;5056254;28;20539;-63
2022/12/06 13:17:06;;;;;;;13.40;9.65;;;4.10;99.90;;;;;;5056829;28;20226;-62
2022/12/06 13:19:39;;;;;;;14.98;10.15;;;4.10;99.90;;;;;;5057321;28;20201;-61
2022/12/06 13:22:07;;;;;;;14.52;9.05;;;4.10;99.90;;;;;;5056908;28;20184;-62
2022/12/06 13:24:35;;;;;;;13.63;9.07;;;4.10;99.90;;;;;;5056333;28;20209;-63
2022/12/06 13:27:04;;;;;;;15.95;10.65;;;4.10;99.90;;;;;;5056702;28;20748;-62
2022/12/06 13:29:33;;;;;;;17.10;10.10;;;4.10;99.90;;;;;;5056459;28;20658;-63
2022/12/06 13:32:06;;;;;;;16.02;10.30;;;4.10;99.90;;;;;;5055815;28;20295;-63
2022/12/06 13:34:39;;;;;;;14.85;10.13;;;4.10;99.90;;;;;;5055534;28;20568;-64